createdAt,value
2018-06-05T00:02:04.767Z,32.00
2018-06-05T00:04:35.761Z,32.10
2018-06-05T00:07:06.341Z,32.00
2018-06-05T00:09:36.927Z,31.90
2018-06-05T00:12:08.216Z,31.90
2018-06-05T00:14:38.925Z,33.00
2018-06-05T00:17:09.554Z,33.40
2018-06-05T00:19:40.843Z,33.40
2018-06-05T00:22:11.689Z,33.50
2018-06-05T00:24:42.180Z,34.60
2018-06-05T00:27:13.189Z,33.50
2018-06-05T00:29:44.129Z,33.30
2018-06-05T00:32:15.084Z,33.50
2018-06-05T00:34:46.073Z,34.90
2018-06-05T00:37:16.683Z,33.80
2018-06-05T00:39:47.715Z,34.50
2018-06-05T00:42:18.652Z,35.60
2018-06-05T00:44:49.257Z,35.10
2018-06-05T00:49:50.294Z,33.80
2018-06-05T00:52:21.354Z,34.00
2018-06-05T00:54:52.191Z,33.90
2018-06-05T00:57:23.235Z,33.50
2018-06-05T00:59:54.385Z,34.00
2018-06-05T01:02:25.183Z,33.90
2018-06-05T01:04:55.990Z,34.10
2018-06-05T01:07:26.796Z,34.50
2018-06-05T01:09:57.015Z,34.00
2018-06-05T01:12:28.110Z,34.40
2018-06-05T01:14:59.191Z,34.40
2018-06-05T01:17:30.754Z,35.10
2018-06-05T01:20:01.529Z,35.00
2018-06-05T01:22:32.578Z,35.50
2018-06-05T01:25:03.369Z,35.60
2018-06-05T01:27:34.509Z,35.10
2018-06-05T01:30:05.691Z,35.30
2018-06-05T01:32:36.613Z,35.00
2018-06-05T01:35:07.744Z,35.10
2018-06-05T01:37:38.339Z,35.80
2018-06-05T01:40:09.486Z,35.20
2018-06-05T01:42:40.894Z,35.30
2018-06-05T01:45:11.722Z,35.80
2018-06-05T01:47:43.114Z,36.60
2018-06-05T01:50:13.785Z,36.10
2018-06-05T01:52:45.370Z,36.10
2018-06-05T01:55:16.225Z,36.20
2018-06-05T01:57:47.093Z,36.40
2018-06-05T02:02:47.941Z,36.60
2018-06-05T02:05:18.599Z,36.40
2018-06-05T02:07:49.201Z,37.10
2018-06-05T02:12:50.287Z,37.00
2018-06-05T02:15:21.342Z,37.20
2018-06-05T02:17:51.760Z,36.60
2018-06-05T02:20:22.617Z,36.80
2018-06-05T02:22:53.183Z,36.20
2018-06-05T02:25:24.253Z,36.10
2018-06-05T02:27:55.878Z,35.30
2018-06-05T02:30:26.898Z,34.40
2018-06-05T02:32:57.469Z,33.30
2018-06-05T02:35:28.108Z,33.10
2018-06-05T02:37:59.251Z,33.00
2018-06-05T02:40:30.478Z,33.30
2018-06-05T02:43:01.469Z,33.20
2018-06-05T02:45:32.301Z,33.60
2018-06-05T02:48:03.418Z,33.80
2018-06-05T02:50:34.446Z,34.00
2018-06-05T02:53:05.451Z,33.90
2018-06-05T02:55:36.384Z,34.10
2018-06-05T02:58:07.575Z,34.00
2018-06-05T03:03:08.199Z,31.60
2018-06-05T03:05:39.021Z,30.30
2018-06-05T03:09:39.101Z,29.60
2018-06-05T03:12:10.313Z,29.10
2018-06-05T03:14:40.969Z,27.80
2018-06-05T03:17:11.870Z,27.60
2018-06-05T03:19:41.967Z,26.40
2018-06-05T03:22:13.231Z,25.60
2018-06-05T03:24:44.093Z,25.80
2018-06-05T03:27:15.491Z,26.00
2018-06-05T03:29:46.145Z,26.20
2018-06-05T03:32:16.042Z,25.30
2018-06-05T03:34:47.076Z,25.10
2018-06-05T03:37:18.570Z,24.50
2018-06-05T03:39:49.104Z,24.90
2018-06-05T03:42:20.014Z,24.80
2018-06-05T03:44:50.807Z,25.40
2018-06-05T03:47:22.057Z,25.30
2018-06-05T03:49:52.824Z,24.70
2018-06-05T03:52:23.863Z,24.50
2018-06-05T03:54:55.253Z,24.90
2018-06-05T03:57:25.795Z,24.30
2018-06-05T03:59:56.638Z,24.20
2018-06-05T04:02:27.261Z,25.10
2018-06-05T04:04:58.045Z,24.60
2018-06-05T04:07:29.045Z,24.70
2018-06-05T04:09:59.934Z,24.70
2018-06-05T04:12:30.066Z,25.60
2018-06-05T04:15:00.801Z,25.40
2018-06-05T04:17:31.693Z,25.40
2018-06-05T04:20:02.770Z,25.10
2018-06-05T04:22:33.682Z,24.00
2018-06-05T04:25:04.437Z,24.00
2018-06-05T04:27:34.784Z,23.60
2018-06-05T04:30:05.468Z,23.40
2018-06-05T04:32:36.600Z,23.90
2018-06-05T04:35:07.238Z,23.90
2018-06-05T04:37:37.982Z,23.70
2018-06-05T04:40:09.052Z,23.00
2018-06-05T04:42:40.339Z,23.50
2018-06-05T04:45:11.381Z,22.40
2018-06-05T04:47:42.238Z,23.50
2018-06-05T04:50:12.822Z,24.10
2018-06-05T04:52:43.608Z,23.30
2018-06-05T04:55:14.580Z,23.30
2018-06-05T04:57:45.655Z,24.40
2018-06-05T05:00:16.474Z,25.10
2018-06-05T05:02:47.067Z,25.30
2018-06-05T05:05:17.665Z,25.60
2018-06-05T05:07:48.497Z,25.20
2018-06-05T05:10:19.262Z,24.90
2018-06-05T05:12:49.667Z,24.70
2018-06-05T05:15:19.592Z,25.20
2018-06-05T05:17:50.459Z,25.90
2018-06-05T05:20:20.957Z,25.40
2018-06-05T05:22:53.746Z,25.90
2018-06-05T05:25:25.835Z,25.40
2018-06-05T05:27:57.631Z,24.70
2018-06-05T05:30:30.511Z,25.40
2018-06-05T05:33:03.391Z,24.90
2018-06-05T05:35:34.921Z,24.90
2018-06-05T05:38:07.611Z,24.40
2018-06-05T05:40:40.258Z,24.10
2018-06-05T05:43:16.163Z,24.70
2018-06-05T05:45:48.338Z,24.60
2018-06-05T05:48:21.756Z,25.50
2018-06-05T05:50:54.987Z,25.60
2018-06-05T05:53:26.635Z,26.00
2018-06-05T05:55:57.705Z,27.20
2018-06-05T05:58:29.863Z,26.90
2018-06-05T06:01:03.212Z,28.00
2018-06-05T06:03:34.305Z,28.00
2018-06-05T06:06:07.680Z,28.00
2018-06-05T06:08:39.482Z,28.50
2018-06-05T06:11:11.663Z,27.80
2018-06-05T06:13:44.706Z,28.10
2018-06-05T06:16:16.554Z,27.50
2018-06-05T06:18:47.616Z,28.40
2018-06-05T06:21:17.731Z,28.50
2018-06-05T06:23:47.661Z,28.10
2018-06-05T06:26:17.736Z,28.30
2018-06-05T06:28:47.746Z,28.60
2018-06-05T06:31:17.788Z,28.60
2018-06-05T06:33:48.729Z,28.30
2018-06-05T06:36:19.512Z,27.70
2018-06-05T06:38:50.418Z,27.30
2018-06-05T06:41:21.373Z,27.70
2018-06-05T06:43:51.326Z,27.80
2018-06-05T06:46:21.279Z,28.30
2018-06-05T06:48:52.430Z,29.10
2018-06-05T06:51:23.174Z,29.60
2018-06-05T06:53:54.088Z,29.10
2018-06-05T06:56:24.429Z,30.00
2018-06-05T06:58:55.948Z,29.20
2018-06-05T07:01:26.720Z,28.50
2018-06-05T07:03:57.441Z,29.30
2018-06-05T07:06:29.171Z,29.40
2018-06-05T07:09:01.837Z,29.10
2018-06-05T07:11:34.306Z,28.20
2018-06-05T07:14:05.713Z,28.60
2018-06-05T07:16:35.736Z,28.60
2018-06-05T07:19:05.618Z,29.00
2018-06-05T07:21:36.330Z,28.30
2018-06-05T07:24:06.249Z,28.40
2018-06-05T07:29:06.178Z,29.00
2018-06-05T07:31:36.720Z,29.00
2018-06-05T07:34:07.849Z,28.30
2018-06-05T07:36:37.841Z,27.50
2018-06-05T07:39:09.002Z,27.30
2018-06-05T07:41:39.954Z,27.30
2018-06-05T07:44:11.056Z,27.80
2018-06-05T07:46:41.510Z,27.90
2018-06-05T07:49:12.648Z,28.10
2018-06-05T07:51:42.553Z,28.00
2018-06-05T07:54:13.568Z,27.90
2018-06-05T07:56:44.163Z,28.30
2018-06-05T07:59:14.878Z,27.30
2018-06-05T08:01:45.936Z,27.50
2018-06-05T08:04:16.682Z,28.60
2018-06-05T08:06:47.410Z,27.30
2018-06-05T08:09:18.525Z,28.40
2018-06-05T08:11:49.317Z,27.70
2018-06-05T08:14:19.351Z,27.30
2018-06-05T08:16:50.239Z,27.30
2018-06-05T08:19:20.958Z,27.50
2018-06-05T08:21:51.960Z,26.90
2018-06-05T08:24:21.904Z,27.40
2018-06-05T08:29:24.524Z,27.70
2018-06-05T08:31:54.390Z,27.30
2018-06-05T08:34:25.426Z,26.60
2018-06-05T08:36:55.387Z,26.50
2018-06-05T08:39:25.397Z,28.00
2018-06-05T08:41:56.070Z,28.20
2018-06-05T08:44:26.074Z,27.90
2018-06-05T08:46:56.660Z,27.60
2018-06-05T08:49:27.713Z,27.90
2018-06-05T08:51:57.788Z,27.60
2018-06-05T08:54:27.690Z,27.30
2018-06-05T08:56:58.697Z,27.30
2018-06-05T08:59:29.227Z,27.60
2018-06-05T09:01:59.216Z,27.10
2018-06-05T09:04:29.083Z,27.60
2018-06-05T09:07:00.032Z,26.80
2018-06-05T09:09:30.146Z,27.10
2018-06-05T09:12:00.752Z,27.70
2018-06-05T09:14:30.736Z,26.90
2018-06-05T09:17:00.727Z,27.80
2018-06-05T09:19:31.367Z,27.00
2018-06-05T09:22:01.264Z,27.00
2018-06-05T09:24:31.380Z,27.10
2018-06-05T09:27:01.263Z,26.80
2018-06-05T09:29:31.175Z,27.10
2018-06-05T09:32:02.004Z,26.70
2018-06-05T09:34:32.741Z,26.00
2018-06-05T09:37:02.679Z,25.20
2018-06-05T09:39:33.533Z,25.00
2018-06-05T09:42:03.559Z,26.00
2018-06-05T09:44:33.451Z,25.10
2018-06-05T09:47:03.366Z,26.00
2018-06-05T09:49:34.658Z,25.00
2018-06-05T09:52:05.804Z,24.90
2018-06-05T09:54:35.696Z,25.90
2018-06-05T09:57:05.931Z,25.60
2018-06-05T09:59:36.756Z,25.80
2018-06-05T10:02:07.348Z,26.10
2018-06-05T10:04:38.262Z,25.50
2018-06-05T10:07:09.322Z,24.90
2018-06-05T10:09:39.940Z,25.00
2018-06-05T10:12:09.805Z,24.90
2018-06-05T10:14:39.667Z,24.50
2018-06-05T10:17:09.744Z,24.70
2018-06-05T10:20:43.237Z,25.20
2018-06-05T10:23:13.725Z,23.90
2018-06-05T10:28:14.624Z,23.50
2018-06-05T10:30:45.529Z,23.90
2018-06-05T10:33:16.501Z,23.60
2018-06-05T10:35:46.526Z,23.90
2018-06-05T10:38:16.404Z,23.60
2018-06-05T10:40:47.204Z,23.50
2018-06-05T10:43:18.232Z,23.30
2018-06-05T10:45:48.347Z,23.80
2018-06-05T10:48:18.407Z,23.40
2018-06-05T10:50:48.476Z,24.10
2018-06-05T10:53:19.515Z,23.50
2018-06-05T10:55:50.067Z,23.70
2018-06-05T10:58:20.049Z,23.70
2018-06-05T11:00:50.705Z,24.20
2018-06-05T11:03:20.594Z,24.10
2018-06-05T11:05:50.497Z,23.60
2018-06-05T11:08:21.222Z,23.50
2018-06-05T11:10:52.395Z,23.90
2018-06-05T11:13:22.373Z,23.70
2018-06-05T11:15:52.272Z,24.00
2018-06-05T11:18:22.965Z,23.70
2018-06-05T11:20:52.953Z,24.20
2018-06-05T11:23:22.842Z,24.80
2018-06-05T11:25:52.916Z,24.40
2018-06-05T11:28:23.784Z,23.60
2018-06-05T11:33:25.017Z,23.70
2018-06-05T11:35:55.600Z,24.70
2018-06-05T11:38:25.514Z,24.20
2018-06-05T11:40:56.133Z,24.50
2018-06-05T11:43:26.102Z,24.00
2018-06-05T11:45:56.757Z,23.90
2018-06-05T11:48:27.931Z,24.10
2018-06-05T11:50:58.727Z,24.20
2018-06-05T11:55:58.389Z,21.90
2018-06-05T11:58:28.425Z,22.00
2018-06-05T12:00:58.446Z,22.30
2018-06-05T12:03:29.620Z,22.50
2018-06-05T12:06:00.695Z,22.80
2018-06-05T12:11:01.612Z,21.50
2018-06-05T12:13:32.496Z,21.30
2018-06-05T12:18:33.473Z,21.90
2018-06-05T12:21:04.995Z,21.00
2018-06-05T12:23:35.828Z,22.30
2018-06-05T12:28:36.506Z,22.10
2018-06-05T12:31:07.637Z,23.30
2018-06-05T12:36:08.853Z,22.40
2018-06-05T12:38:38.881Z,21.40
2018-06-05T12:41:08.915Z,21.30
2018-06-05T12:43:39.980Z,21.80
2018-06-05T12:46:10.004Z,22.50
2018-06-05T12:48:39.982Z,21.40
2018-06-05T12:51:11.139Z,21.60
2018-06-05T12:53:42.013Z,20.40
2018-06-05T12:56:12.411Z,20.50
2018-06-05T12:58:43.553Z,20.20
2018-06-05T13:01:14.364Z,19.80
2018-06-05T13:03:45.155Z,21.20
2018-06-05T13:07:44.449Z,20.60
2018-06-05T13:10:15.328Z,21.20
2018-06-05T13:12:46.241Z,20.90
2018-06-05T13:15:16.974Z,21.00
2018-06-05T13:17:48.161Z,20.00
2018-06-05T13:20:18.056Z,20.40
2018-06-05T13:22:48.248Z,21.20
2018-06-05T13:25:18.286Z,22.20
2018-06-05T13:27:48.333Z,20.60
2018-06-05T13:30:18.671Z,20.20
2018-06-05T13:32:48.626Z,19.30
2018-06-05T13:35:19.652Z,19.80
2018-06-05T13:37:49.912Z,20.40
2018-06-05T13:42:49.866Z,21.70
2018-06-05T13:45:19.811Z,20.50
2018-06-05T13:47:49.709Z,20.60
2018-06-05T13:50:19.628Z,20.00
2018-06-05T13:52:50.466Z,19.30
2018-06-05T13:55:21.696Z,19.70
2018-06-05T13:57:51.747Z,18.60
2018-06-05T14:00:21.637Z,19.20
2018-06-05T14:02:51.666Z,20.60
2018-06-05T14:05:22.617Z,19.50
2018-06-05T14:07:52.575Z,19.20
2018-06-05T14:10:22.467Z,18.70
2018-06-05T14:12:53.262Z,19.50
2018-06-05T14:15:23.932Z,19.20
2018-06-05T14:17:53.855Z,19.70
2018-06-05T14:20:24.956Z,19.40
2018-06-05T14:22:54.876Z,20.90
2018-06-05T14:27:54.954Z,21.00
2018-06-05T14:30:24.843Z,21.50
2018-06-05T14:32:54.737Z,21.40
2018-06-05T14:35:25.266Z,21.40
2018-06-05T14:37:56.432Z,22.10
2018-06-05T14:40:26.415Z,21.20
2018-06-05T14:42:57.359Z,20.40
2018-06-05T14:45:27.312Z,21.20
2018-06-05T14:51:30.593Z,21.10
2018-06-05T14:54:00.996Z,20.60
2018-06-05T14:59:01.129Z,20.60
2018-06-05T15:01:31.174Z,21.00
2018-06-05T15:04:02.364Z,21.30
2018-06-05T15:06:32.256Z,22.10
2018-06-05T15:09:03.933Z,21.50
2018-06-05T15:11:33.855Z,21.40
2018-06-05T15:14:03.793Z,21.40
2018-06-05T15:16:34.469Z,21.60
2018-06-05T15:19:04.350Z,20.70
2018-06-05T15:21:34.385Z,21.00
2018-06-05T15:24:04.399Z,21.80
2018-06-05T15:26:34.495Z,20.60
2018-06-05T15:29:04.524Z,20.70
2018-06-05T15:31:34.529Z,21.20
2018-06-05T15:34:04.573Z,21.80
2018-06-05T15:36:34.402Z,20.30
2018-06-05T15:39:06.475Z,20.00
2018-06-05T15:41:37.626Z,20.00
2018-06-05T15:44:08.616Z,21.20
2018-06-05T15:46:39.181Z,20.90
2018-06-05T15:49:09.143Z,21.80
2018-06-05T15:51:39.041Z,21.00
2018-06-05T15:54:09.362Z,20.40
2018-06-05T15:56:40.221Z,20.70
2018-06-05T15:59:10.240Z,21.30
2018-06-05T16:01:41.056Z,21.20
2018-06-05T16:04:10.926Z,21.50
2018-06-05T16:06:40.840Z,21.10
2018-06-05T16:09:11.683Z,21.00
2018-06-05T16:11:41.640Z,22.20
2018-06-05T16:14:12.305Z,22.70
2018-06-05T16:16:43.710Z,22.00
2018-06-05T16:22:04.517Z,23.10
2018-06-05T16:24:32.963Z,21.80
2018-06-05T16:27:02.473Z,21.30
2018-06-05T16:29:31.225Z,23.00
2018-06-05T16:31:59.657Z,22.00
2018-06-05T16:34:29.173Z,22.80
2018-06-05T16:36:58.763Z,22.70
2018-06-05T16:39:28.000Z,22.60
2018-06-05T16:41:56.509Z,22.20
2018-06-05T16:44:26.159Z,22.60
2018-06-05T16:46:55.760Z,23.40
2018-06-05T16:49:24.263Z,23.80
2018-06-05T16:51:52.755Z,21.80
2018-06-05T16:54:21.214Z,22.20
2018-06-05T16:56:49.779Z,23.40
2018-06-05T16:59:18.998Z,22.80
2018-06-05T17:01:48.516Z,22.80
2018-06-05T17:04:18.168Z,24.40
2018-06-05T17:06:46.786Z,24.90
2018-06-05T17:09:16.707Z,24.00
2018-06-05T17:14:14.291Z,24.80
2018-06-05T17:16:43.644Z,23.70
2018-06-05T17:19:13.308Z,23.90
2018-06-05T17:21:43.029Z,24.10
2018-06-05T17:24:12.872Z,24.70
2018-06-05T17:26:41.308Z,24.40
2018-06-05T17:29:09.880Z,24.20
2018-06-05T17:31:38.326Z,24.50
2018-06-05T17:34:06.949Z,24.00
2018-06-05T17:36:37.076Z,24.70
2018-06-05T17:39:08.053Z,24.70
2018-06-05T17:41:37.812Z,25.40
2018-06-05T17:44:07.745Z,23.80
2018-06-05T17:46:37.821Z,24.60
2018-06-05T17:49:06.307Z,24.30
2018-06-05T17:51:34.766Z,24.40
2018-06-05T17:54:04.848Z,24.30
2018-06-05T17:56:35.168Z,24.00
2018-06-05T17:59:03.841Z,24.40
2018-06-05T18:01:33.769Z,24.50
2018-06-05T18:04:03.772Z,24.30
2018-06-05T18:06:33.758Z,24.50
2018-06-05T18:09:02.294Z,24.90
2018-06-05T18:11:31.443Z,25.20
2018-06-05T18:13:59.933Z,25.40
2018-06-05T18:16:28.432Z,25.40
2018-06-05T18:18:57.147Z,25.40
2018-06-05T18:21:27.062Z,25.40
2018-06-05T18:23:55.660Z,25.40
2018-06-05T18:26:24.255Z,25.30
2018-06-05T18:28:52.946Z,24.80
2018-06-05T18:31:21.529Z,24.60
2018-06-05T18:33:49.968Z,25.20
2018-06-05T18:36:18.557Z,25.20
2018-06-05T18:38:47.199Z,25.20
2018-06-05T18:41:15.794Z,25.20
2018-06-05T18:43:44.284Z,25.30
2018-06-05T18:46:12.980Z,25.40
2018-06-05T18:48:41.425Z,24.20
2018-06-05T18:51:09.909Z,25.00
2018-06-05T18:53:38.415Z,24.50
2018-06-05T18:56:07.005Z,24.40
2018-06-05T18:58:35.418Z,24.40
2018-06-05T19:01:05.630Z,24.70
2018-06-05T19:03:34.073Z,24.00
2018-06-05T19:06:03.527Z,24.20
2018-06-05T19:08:32.107Z,24.50
2018-06-05T19:11:00.566Z,24.30
2018-06-05T19:13:30.297Z,24.50
2018-06-05T19:16:00.236Z,24.30
2018-06-05T19:18:28.714Z,24.60
2018-06-05T19:20:58.369Z,24.70
2018-06-05T19:23:28.285Z,24.90
2018-06-05T19:25:58.648Z,24.90
2018-06-05T19:28:27.240Z,25.30
2018-06-05T19:30:55.732Z,24.70
2018-06-05T19:33:26.000Z,25.00
2018-06-05T19:35:56.523Z,25.20
2018-06-05T19:38:25.039Z,24.80
2018-06-05T19:43:25.861Z,24.90
2018-06-05T19:45:57.005Z,25.60
2018-06-05T19:48:25.545Z,25.30
2018-06-05T19:50:56.012Z,26.30
2018-06-05T19:53:24.554Z,26.50
2018-06-05T19:55:55.297Z,26.80
2018-06-05T19:58:25.759Z,26.60
2018-06-05T20:00:56.496Z,27.40
2018-06-05T20:03:27.072Z,27.20
2018-06-05T20:05:56.840Z,28.30
2018-06-05T20:08:26.266Z,28.60
2018-06-05T20:10:55.898Z,28.50
2018-06-05T20:13:24.444Z,28.70
2018-06-05T20:15:54.088Z,29.00
2018-06-05T20:18:22.878Z,29.70
2018-06-05T20:20:52.649Z,29.80
2018-06-05T20:23:22.357Z,30.10
2018-06-05T20:25:52.107Z,30.20
2018-06-05T20:28:22.000Z,30.60
2018-06-05T20:30:51.387Z,30.90
2018-06-05T20:33:20.900Z,31.00
2018-06-05T20:35:50.429Z,31.80
2018-06-05T20:38:20.185Z,32.00
2018-06-05T20:40:49.452Z,32.40
2018-06-05T20:43:19.541Z,32.50
2018-06-05T20:45:47.961Z,32.90
2018-06-05T20:48:16.459Z,32.50
2018-06-05T20:50:45.984Z,32.40
2018-06-05T20:53:14.516Z,32.40
2018-06-05T20:55:44.490Z,32.50
2018-06-05T20:58:14.432Z,32.20
2018-06-05T21:00:43.138Z,32.30
2018-06-05T21:03:12.648Z,32.50
2018-06-05T21:05:41.211Z,32.70
2018-06-05T21:08:11.144Z,32.70
2018-06-05T21:10:41.109Z,32.80
2018-06-05T21:13:10.544Z,33.00
2018-06-05T21:15:39.134Z,33.30
2018-06-05T21:18:07.682Z,33.50
2018-06-05T21:20:36.326Z,33.70
2018-06-05T21:23:04.793Z,34.00
2018-06-05T21:25:33.296Z,34.40
2018-06-05T21:28:03.129Z,35.20
2018-06-05T21:30:33.082Z,35.40
2018-06-05T21:33:01.616Z,35.50
2018-06-05T21:35:30.084Z,36.10
2018-06-05T21:37:59.486Z,36.50
2018-06-05T21:40:27.931Z,36.70
2018-06-05T21:42:57.709Z,37.30
2018-06-05T21:45:26.143Z,37.70
2018-06-05T21:47:55.400Z,37.70
2018-06-05T21:50:25.400Z,37.90
2018-06-05T21:52:54.931Z,37.80
2018-06-05T21:55:25.219Z,38.20
2018-06-05T21:57:55.247Z,38.70
2018-06-05T22:00:24.847Z,39.20
2018-06-05T22:02:54.873Z,39.50
2018-06-05T22:05:24.391Z,39.90
2018-06-05T22:07:54.192Z,39.70
2018-06-05T22:10:23.907Z,39.50
2018-06-05T22:12:53.319Z,39.80
2018-06-05T22:15:22.842Z,40.30
2018-06-05T22:17:52.627Z,40.30
2018-06-05T22:20:22.358Z,40.30
2018-06-05T22:22:51.760Z,40.40
2018-06-05T22:25:21.367Z,40.30
2018-06-05T22:27:50.767Z,40.30
2018-06-05T22:30:20.813Z,40.60
2018-06-05T22:32:50.718Z,40.40
2018-06-05T22:35:20.099Z,40.90
2018-06-05T22:37:50.091Z,40.80
2018-06-05T22:40:19.501Z,41.10
2018-06-05T22:42:49.519Z,41.20
2018-06-05T22:45:18.714Z,41.80
2018-06-05T22:47:48.021Z,41.80
2018-06-05T22:50:18.073Z,41.50
2018-06-05T22:52:47.444Z,41.80
2018-06-05T22:55:16.961Z,42.20
2018-06-05T22:57:46.437Z,42.70
2018-06-05T23:00:34.994Z,43.10
2018-06-05T23:03:04.842Z,43.40
2018-06-05T23:05:33.339Z,43.60
2018-06-05T23:08:02.615Z,43.50
2018-06-05T23:10:32.364Z,43.60
2018-06-05T23:13:01.503Z,43.60
2018-06-05T23:15:31.576Z,43.80
2018-06-05T23:18:01.418Z,44.10
2018-06-05T23:20:31.362Z,44.30
2018-06-05T23:23:01.061Z,45.00
2018-06-05T23:25:30.762Z,45.50
2018-06-05T23:28:00.467Z,45.60
2018-06-05T23:30:29.659Z,45.70
2018-06-05T23:32:59.299Z,45.90
2018-06-05T23:35:29.014Z,46.00
2018-06-05T23:37:58.491Z,46.00
2018-06-05T23:40:27.699Z,46.10
2018-06-05T23:42:57.613Z,46.30
2018-06-05T23:45:27.619Z,46.40
2018-06-05T23:47:57.352Z,46.20
2018-06-05T23:50:26.959Z,45.90
2018-06-05T23:52:56.993Z,45.50
2018-06-05T23:55:26.453Z,45.40
2018-06-05T23:57:56.374Z,45.70
